sensor_id;sensor_type;location;lat;lon;timestamp;P1;durP1;ratioP1;P2;durP2;ratioP2
10311;SDS011;5201;48.776;9.128;2023-04-15T00:00:40;3.17;;;1.50;;
10311;SDS011;5201;48.776;9.128;2023-04-15T00:03:06;4.37;;;1.70;;
10311;SDS011;5201;48.776;9.128;2023-04-15T00:05:32;5.83;;;1.50;;
10311;SDS011;5201;48.776;9.128;2023-04-15T00:07:57;6.03;;;1.30;;
10311;SDS011;5201;48.776;9.128;2023-04-15T00:10:24;8.07;;;1.70;;
10311;SDS011;5201;48.776;9.128;2023-04-15T00:12:50;1.90;;;1.40;;
10311;SDS011;5201;48.776;9.128;2023-04-15T00:15:16;7.13;;;1.40;;
10311;SDS011;5201;48.776;9.128;2023-04-15T00:17:42;3.33;;;1.50;;
10311;SDS011;5201;48.776;9.128;2023-04-15T00:20:07;3.70;;;1.40;;
10311;SDS011;5201;48.776;9.128;2023-04-15T00:22:34;2.13;;;1.40;;
10311;SDS011;5201;48.776;9.128;2023-04-15T00:25:00;4.57;;;1.50;;
10311;SDS011;5201;48.776;9.128;2023-04-15T00:27:26;3.87;;;1.50;;
10311;SDS011;5201;48.776;9.128;2023-04-15T00:29:51;3.00;;;1.43;;
10311;SDS011;5201;48.776;9.128;2023-04-15T00:32:17;2.70;;;1.40;;
10311;SDS011;5201;48.776;9.128;2023-04-15T00:34:42;3.63;;;1.30;;
10311;SDS011;5201;48.776;9.128;2023-04-15T00:37:08;2.50;;;1.00;;
10311;SDS011;5201;48.776;9.128;2023-04-15T00:39:34;2.07;;;1.20;;
10311;SDS011;5201;48.776;9.128;2023-04-15T00:42:01;3.27;;;1.40;;
10311;SDS011;5201;48.776;9.128;2023-04-15T00:44:28;1.40;;;1.20;;
10311;SDS011;5201;48.776;9.128;2023-04-15T00:46:54;1.77;;;1.20;;
10311;SDS011;5201;48.776;9.128;2023-04-15T00:49:20;3.70;;;1.30;;
10311;SDS011;5201;48.776;9.128;2023-04-15T00:51:47;1.57;;;1.20;;
10311;SDS011;5201;48.776;9.128;2023-04-15T00:54:13;4.30;;;1.30;;
10311;SDS011;5201;48.776;9.128;2023-04-15T00:56:38;4.53;;;1.67;;
10311;SDS011;5201;48.776;9.128;2023-04-15T00:59:04;1.50;;;1.40;;
10311;SDS011;5201;48.776;9.128;2023-04-15T01:01:32;1.57;;;1.10;;
10311;SDS011;5201;48.776;9.128;2023-04-15T01:06:27;3.83;;;1.30;;
10311;SDS011;5201;48.776;9.128;2023-04-15T01:08:53;1.60;;;1.03;;
10311;SDS011;5201;48.776;9.128;2023-04-15T01:11:19;2.87;;;1.23;;
10311;SDS011;5201;48.776;9.128;2023-04-15T01:13:48;5.10;;;1.10;;
10311;SDS011;5201;48.776;9.128;2023-04-15T01:16:14;2.63;;;1.67;;
10311;SDS011;5201;48.776;9.128;2023-04-15T01:18:40;2.50;;;1.43;;
10311;SDS011;5201;48.776;9.128;2023-04-15T01:21:06;4.40;;;1.37;;
10311;SDS011;5201;48.776;9.128;2023-04-15T01:23:32;3.17;;;1.40;;
10311;SDS011;5201;48.776;9.128;2023-04-15T01:26:02;4.67;;;1.53;;
10311;SDS011;5201;48.776;9.128;2023-04-15T01:28:28;2.10;;;1.30;;
10311;SDS011;5201;48.776;9.128;2023-04-15T01:31:13;2.43;;;1.30;;
10311;SDS011;5201;48.776;9.128;2023-04-15T01:33:40;3.90;;;1.53;;
10311;SDS011;5201;48.776;9.128;2023-04-15T01:36:07;4.40;;;1.37;;
10311;SDS011;5201;48.776;9.128;2023-04-15T01:38:34;4.47;;;1.63;;
10311;SDS011;5201;48.776;9.128;2023-04-15T01:41:00;4.63;;;1.40;;
10311;SDS011;5201;48.776;9.128;2023-04-15T01:43:28;2.83;;;1.70;;
10311;SDS011;5201;48.776;9.128;2023-04-15T01:45:53;1.57;;;1.30;;
10311;SDS011;5201;48.776;9.128;2023-04-15T01:48:19;1.40;;;1.13;;
10311;SDS011;5201;48.776;9.128;2023-04-15T01:50:45;3.03;;;1.73;;
10311;SDS011;5201;48.776;9.128;2023-04-15T01:53:11;5.93;;;1.47;;
10311;SDS011;5201;48.776;9.128;2023-04-15T01:55:36;2.80;;;1.33;;
10311;SDS011;5201;48.776;9.128;2023-04-15T01:58:02;5.87;;;1.77;;
10311;SDS011;5201;48.776;9.128;2023-04-15T02:00:28;4.07;;;2.30;;
10311;SDS011;5201;48.776;9.128;2023-04-15T02:02:54;2.83;;;1.67;;
10311;SDS011;5201;48.776;9.128;2023-04-15T02:05:20;3.20;;;1.37;;
10311;SDS011;5201;48.776;9.128;2023-04-15T02:07:45;6.47;;;2.07;;
10311;SDS011;5201;48.776;9.128;2023-04-15T02:10:12;4.10;;;1.60;;
10311;SDS011;5201;48.776;9.128;2023-04-15T02:12:38;5.77;;;1.27;;
10311;SDS011;5201;48.776;9.128;2023-04-15T02:15:04;2.83;;;1.33;;
10311;SDS011;5201;48.776;9.128;2023-04-15T02:17:33;1.83;;;1.30;;
10311;SDS011;5201;48.776;9.128;2023-04-15T02:19:59;2.50;;;1.50;;
10311;SDS011;5201;48.776;9.128;2023-04-15T02:22:25;3.53;;;1.20;;
10311;SDS011;5201;48.776;9.128;2023-04-15T02:24:50;4.83;;;1.67;;
10311;SDS011;5201;48.776;9.128;2023-04-15T02:27:17;2.40;;;1.30;;
10311;SDS011;5201;48.776;9.128;2023-04-15T02:29:43;2.07;;;1.50;;
10311;SDS011;5201;48.776;9.128;2023-04-15T02:32:10;3.43;;;1.30;;
10311;SDS011;5201;48.776;9.128;2023-04-15T02:34:37;1.30;;;1.20;;
10311;SDS011;5201;48.776;9.128;2023-04-15T02:37:07;4.67;;;1.60;;
10311;SDS011;5201;48.776;9.128;2023-04-15T02:39:33;2.33;;;1.10;;
10311;SDS011;5201;48.776;9.128;2023-04-15T02:41:59;5.13;;;1.70;;
10311;SDS011;5201;48.776;9.128;2023-04-15T02:44:28;3.70;;;1.10;;
10311;SDS011;5201;48.776;9.128;2023-04-15T02:46:53;3.77;;;1.30;;
10311;SDS011;5201;48.776;9.128;2023-04-15T02:49:20;2.47;;;1.70;;
10311;SDS011;5201;48.776;9.128;2023-04-15T02:51:45;5.03;;;1.40;;
10311;SDS011;5201;48.776;9.128;2023-04-15T02:54:13;1.30;;;1.20;;
10311;SDS011;5201;48.776;9.128;2023-04-15T02:56:43;3.43;;;1.37;;
10311;SDS011;5201;48.776;9.128;2023-04-15T02:59:08;4.93;;;1.30;;
10311;SDS011;5201;48.776;9.128;2023-04-15T03:01:34;3.27;;;1.77;;
10311;SDS011;5201;48.776;9.128;2023-04-15T03:04:00;2.07;;;1.17;;
10311;SDS011;5201;48.776;9.128;2023-04-15T03:06:25;8.27;;;1.47;;
10311;SDS011;5201;48.776;9.128;2023-04-15T03:08:51;3.80;;;1.43;;
10311;SDS011;5201;48.776;9.128;2023-04-15T03:11:16;2.97;;;1.40;;
10311;SDS011;5201;48.776;9.128;2023-04-15T03:13:43;1.60;;;1.23;;
10311;SDS011;5201;48.776;9.128;2023-04-15T03:16:09;4.60;;;1.07;;
10311;SDS011;5201;48.776;9.128;2023-04-15T03:18:35;3.13;;;1.13;;
10311;SDS011;5201;48.776;9.128;2023-04-15T03:21:00;2.90;;;1.60;;
10311;SDS011;5201;48.776;9.128;2023-04-15T03:23:26;5.03;;;1.37;;
10311;SDS011;5201;48.776;9.128;2023-04-15T03:25:52;4.43;;;1.27;;
10311;SDS011;5201;48.776;9.128;2023-04-15T03:28:21;3.60;;;1.30;;
10311;SDS011;5201;48.776;9.128;2023-04-15T03:30:46;2.50;;;1.20;;
10311;SDS011;5201;48.776;9.128;2023-04-15T03:33:12;5.33;;;1.70;;
10311;SDS011;5201;48.776;9.128;2023-04-15T03:35:37;4.23;;;1.60;;
10311;SDS011;5201;48.776;9.128;2023-04-15T03:38:03;3.13;;;1.30;;
10311;SDS011;5201;48.776;9.128;2023-04-15T03:40:28;3.13;;;1.50;;
10311;SDS011;5201;48.776;9.128;2023-04-15T03:42:54;4.17;;;2.20;;
10311;SDS011;5201;48.776;9.128;2023-04-15T03:45:20;4.20;;;1.90;;
10311;SDS011;5201;48.776;9.128;2023-04-15T03:47:45;3.60;;;1.97;;
10311;SDS011;5201;48.776;9.128;2023-04-15T03:50:11;5.53;;;1.70;;
10311;SDS011;5201;48.776;9.128;2023-04-15T03:52:37;2.50;;;1.40;;
10311;SDS011;5201;48.776;9.128;2023-04-15T03:55:03;7.40;;;1.73;;
10311;SDS011;5201;48.776;9.128;2023-04-15T03:57:29;2.50;;;1.43;;
10311;SDS011;5201;48.776;9.128;2023-04-15T03:59:55;2.13;;;1.37;;
10311;SDS011;5201;48.776;9.128;2023-04-15T04:02:20;3.03;;;1.63;;
10311;SDS011;5201;48.776;9.128;2023-04-15T04:04:47;3.83;;;2.03;;
10311;SDS011;5201;48.776;9.128;2023-04-15T04:07:15;7.30;;;1.90;;
10311;SDS011;5201;48.776;9.128;2023-04-15T04:09:42;1.80;;;1.70;;
10311;SDS011;5201;48.776;9.128;2023-04-15T04:12:07;4.50;;;1.70;;
10311;SDS011;5201;48.776;9.128;2023-04-15T04:14:33;2.63;;;1.60;;
10311;SDS011;5201;48.776;9.128;2023-04-15T04:16:58;2.23;;;2.00;;
10311;SDS011;5201;48.776;9.128;2023-04-15T04:19:24;6.27;;;1.77;;
10311;SDS011;5201;48.776;9.128;2023-04-15T04:21:50;4.43;;;1.90;;
10311;SDS011;5201;48.776;9.128;2023-04-15T04:24:16;3.20;;;1.90;;
10311;SDS011;5201;48.776;9.128;2023-04-15T04:26:42;7.50;;;2.43;;
10311;SDS011;5201;48.776;9.128;2023-04-15T04:29:07;4.30;;;1.93;;
10311;SDS011;5201;48.776;9.128;2023-04-15T04:31:33;5.27;;;2.30;;
10311;SDS011;5201;48.776;9.128;2023-04-15T04:33:59;5.63;;;2.20;;
10311;SDS011;5201;48.776;9.128;2023-04-15T04:36:24;2.47;;;2.10;;
10311;SDS011;5201;48.776;9.128;2023-04-15T04:38:50;4.87;;;2.40;;
10311;SDS011;5201;48.776;9.128;2023-04-15T04:41:16;3.43;;;2.20;;
10311;SDS011;5201;48.776;9.128;2023-04-15T04:43:42;3.00;;;2.13;;
10311;SDS011;5201;48.776;9.128;2023-04-15T04:46:07;2.83;;;2.23;;
10311;SDS011;5201;48.776;9.128;2023-04-15T04:48:34;2.73;;;2.23;;
10311;SDS011;5201;48.776;9.128;2023-04-15T04:51:00;3.57;;;2.13;;
10311;SDS011;5201;48.776;9.128;2023-04-15T04:53:26;7.83;;;2.30;;
10311;SDS011;5201;48.776;9.128;2023-04-15T04:55:52;4.77;;;2.10;;
10311;SDS011;5201;48.776;9.128;2023-04-15T04:58:17;6.73;;;2.10;;
10311;SDS011;5201;48.776;9.128;2023-04-15T05:00:43;3.03;;;2.03;;
10311;SDS011;5201;48.776;9.128;2023-04-15T05:03:09;4.47;;;1.90;;
10311;SDS011;5201;48.776;9.128;2023-04-15T05:05:34;2.37;;;2.13;;
10311;SDS011;5201;48.776;9.128;2023-04-15T05:08:03;3.90;;;2.00;;
10311;SDS011;5201;48.776;9.128;2023-04-15T05:10:29;3.40;;;2.30;;
10311;SDS011;5201;48.776;9.128;2023-04-15T05:12:55;4.23;;;2.10;;
10311;SDS011;5201;48.776;9.128;2023-04-15T05:15:21;2.40;;;2.20;;
10311;SDS011;5201;48.776;9.128;2023-04-15T05:17:47;5.37;;;2.37;;
10311;SDS011;5201;48.776;9.128;2023-04-15T05:20:12;8.77;;;2.80;;
10311;SDS011;5201;48.776;9.128;2023-04-15T05:22:38;2.57;;;2.33;;
10311;SDS011;5201;48.776;9.128;2023-04-15T05:25:04;4.00;;;2.60;;
10311;SDS011;5201;48.776;9.128;2023-04-15T05:27:29;3.47;;;2.43;;
10311;SDS011;5201;48.776;9.128;2023-04-15T05:29:55;5.87;;;2.40;;
10311;SDS011;5201;48.776;9.128;2023-04-15T05:32:21;3.67;;;2.80;;
10311;SDS011;5201;48.776;9.128;2023-04-15T05:34:46;3.50;;;2.07;;
10311;SDS011;5201;48.776;9.128;2023-04-15T05:37:12;5.00;;;2.40;;
10311;SDS011;5201;48.776;9.128;2023-04-15T05:39:37;2.30;;;2.10;;
10311;SDS011;5201;48.776;9.128;2023-04-15T05:42:03;7.43;;;2.53;;
10311;SDS011;5201;48.776;9.128;2023-04-15T05:44:29;3.87;;;2.30;;
10311;SDS011;5201;48.776;9.128;2023-04-15T05:46:55;8.47;;;2.20;;
10311;SDS011;5201;48.776;9.128;2023-04-15T05:49:21;8.97;;;2.23;;
10311;SDS011;5201;48.776;9.128;2023-04-15T05:51:47;2.63;;;2.20;;
10311;SDS011;5201;48.776;9.128;2023-04-15T05:54:13;5.17;;;2.43;;
10311;SDS011;5201;48.776;9.128;2023-04-15T05:56:39;5.20;;;2.10;;
10311;SDS011;5201;48.776;9.128;2023-04-15T05:59:05;4.70;;;2.13;;
10311;SDS011;5201;48.776;9.128;2023-04-15T06:01:30;2.97;;;2.00;;
10311;SDS011;5201;48.776;9.128;2023-04-15T06:03:58;1.87;;;1.77;;
10311;SDS011;5201;48.776;9.128;2023-04-15T06:06:24;6.00;;;2.60;;
10311;SDS011;5201;48.776;9.128;2023-04-15T06:08:51;8.40;;;2.17;;
10311;SDS011;5201;48.776;9.128;2023-04-15T06:11:17;5.70;;;2.10;;
10311;SDS011;5201;48.776;9.128;2023-04-15T06:13:44;3.40;;;2.00;;
10311;SDS011;5201;48.776;9.128;2023-04-15T06:16:09;2.53;;;1.47;;
10311;SDS011;5201;48.776;9.128;2023-04-15T06:18:35;6.43;;;1.73;;
10311;SDS011;5201;48.776;9.128;2023-04-15T06:21:01;3.23;;;1.60;;
10311;SDS011;5201;48.776;9.128;2023-04-15T06:23:27;5.90;;;1.60;;
10311;SDS011;5201;48.776;9.128;2023-04-15T06:25:52;4.97;;;1.83;;
10311;SDS011;5201;48.776;9.128;2023-04-15T06:28:18;3.77;;;1.43;;
10311;SDS011;5201;48.776;9.128;2023-04-15T06:30:43;4.20;;;1.50;;
10311;SDS011;5201;48.776;9.128;2023-04-15T06:33:09;4.20;;;2.27;;
10311;SDS011;5201;48.776;9.128;2023-04-15T06:35:35;4.53;;;2.10;;
10311;SDS011;5201;48.776;9.128;2023-04-15T06:38:00;5.73;;;1.80;;
10311;SDS011;5201;48.776;9.128;2023-04-15T06:40:26;3.40;;;1.90;;
10311;SDS011;5201;48.776;9.128;2023-04-15T06:42:52;4.60;;;1.93;;
10311;SDS011;5201;48.776;9.128;2023-04-15T06:45:17;2.70;;;1.70;;
10311;SDS011;5201;48.776;9.128;2023-04-15T06:47:43;5.77;;;1.57;;
10311;SDS011;5201;48.776;9.128;2023-04-15T06:50:09;2.63;;;1.50;;
10311;SDS011;5201;48.776;9.128;2023-04-15T06:52:35;4.90;;;1.80;;
10311;SDS011;5201;48.776;9.128;2023-04-15T06:55:01;4.80;;;2.00;;
10311;SDS011;5201;48.776;9.128;2023-04-15T06:57:26;7.43;;;2.20;;
10311;SDS011;5201;48.776;9.128;2023-04-15T06:59:52;4.73;;;2.07;;
10311;SDS011;5201;48.776;9.128;2023-04-15T07:02:18;5.17;;;1.40;;
10311;SDS011;5201;48.776;9.128;2023-04-15T07:04:44;2.67;;;1.80;;
10311;SDS011;5201;48.776;9.128;2023-04-15T07:07:10;6.93;;;1.63;;
10311;SDS011;5201;48.776;9.128;2023-04-15T07:09:36;3.23;;;1.77;;
10311;SDS011;5201;48.776;9.128;2023-04-15T07:12:02;2.80;;;1.60;;
10311;SDS011;5201;48.776;9.128;2023-04-15T07:14:28;2.53;;;1.50;;
10311;SDS011;5201;48.776;9.128;2023-04-15T07:16:54;4.40;;;1.50;;
10311;SDS011;5201;48.776;9.128;2023-04-15T07:19:20;3.63;;;1.47;;
10311;SDS011;5201;48.776;9.128;2023-04-15T07:21:46;3.67;;;1.90;;
10311;SDS011;5201;48.776;9.128;2023-04-15T07:24:11;5.57;;;2.37;;
10311;SDS011;5201;48.776;9.128;2023-04-15T07:26:40;6.57;;;1.53;;
10311;SDS011;5201;48.776;9.128;2023-04-15T07:29:06;4.43;;;1.70;;
10311;SDS011;5201;48.776;9.128;2023-04-15T07:31:32;2.27;;;1.53;;
10311;SDS011;5201;48.776;9.128;2023-04-15T07:33:57;3.97;;;1.80;;
10311;SDS011;5201;48.776;9.128;2023-04-15T07:36:23;2.67;;;1.60;;
10311;SDS011;5201;48.776;9.128;2023-04-15T07:38:49;2.70;;;1.40;;
10311;SDS011;5201;48.776;9.128;2023-04-15T07:41:14;2.63;;;1.30;;
10311;SDS011;5201;48.776;9.128;2023-04-15T07:43:40;5.00;;;1.57;;
10311;SDS011;5201;48.776;9.128;2023-04-15T07:46:06;2.42;;;1.30;;
10311;SDS011;5201;48.776;9.128;2023-04-15T07:48:32;2.93;;;1.70;;
10311;SDS011;5201;48.776;9.128;2023-04-15T07:50:58;1.85;;;1.58;;
10311;SDS011;5201;48.776;9.128;2023-04-15T07:53:24;5.47;;;1.47;;
10311;SDS011;5201;48.776;9.128;2023-04-15T07:55:50;4.57;;;1.60;;
10311;SDS011;5201;48.776;9.128;2023-04-15T07:58:18;3.83;;;1.43;;
10311;SDS011;5201;48.776;9.128;2023-04-15T08:00:44;2.47;;;1.27;;
10311;SDS011;5201;48.776;9.128;2023-04-15T08:03:10;5.40;;;1.20;;
10311;SDS011;5201;48.776;9.128;2023-04-15T08:05:35;3.43;;;1.10;;
10311;SDS011;5201;48.776;9.128;2023-04-15T08:08:01;4.90;;;1.23;;
10311;SDS011;5201;48.776;9.128;2023-04-15T08:10:28;2.60;;;1.00;;
10311;SDS011;5201;48.776;9.128;2023-04-15T08:12:54;2.03;;;1.10;;
10311;SDS011;5201;48.776;9.128;2023-04-15T08:15:20;4.37;;;0.87;;
10311;SDS011;5201;48.776;9.128;2023-04-15T08:17:46;2.17;;;0.80;;
10311;SDS011;5201;48.776;9.128;2023-04-15T08:20:11;4.83;;;0.83;;
10311;SDS011;5201;48.776;9.128;2023-04-15T08:22:38;3.33;;;1.10;;
10311;SDS011;5201;48.776;9.128;2023-04-15T08:25:04;3.70;;;0.97;;
10311;SDS011;5201;48.776;9.128;2023-04-15T08:27:30;3.43;;;0.90;;
10311;SDS011;5201;48.776;9.128;2023-04-15T08:29:55;6.20;;;0.83;;
10311;SDS011;5201;48.776;9.128;2023-04-15T08:32:21;2.57;;;0.80;;
10311;SDS011;5201;48.776;9.128;2023-04-15T08:34:47;1.27;;;0.80;;
10311;SDS011;5201;48.776;9.128;2023-04-15T08:37:12;1.93;;;0.80;;
10311;SDS011;5201;48.776;9.128;2023-04-15T08:39:38;2.10;;;0.87;;
10311;SDS011;5201;48.776;9.128;2023-04-15T08:42:04;1.73;;;0.70;;
10311;SDS011;5201;48.776;9.128;2023-04-15T08:44:40;4.77;;;0.80;;
10311;SDS011;5201;48.776;9.128;2023-04-15T08:47:07;2.30;;;1.20;;
10311;SDS011;5201;48.776;9.128;2023-04-15T08:49:38;3.23;;;0.80;;
10311;SDS011;5201;48.776;9.128;2023-04-15T08:52:05;2.10;;;0.90;;
10311;SDS011;5201;48.776;9.128;2023-04-15T08:54:31;1.83;;;0.70;;
10311;SDS011;5201;48.776;9.128;2023-04-15T08:56:58;2.47;;;0.83;;
10311;SDS011;5201;48.776;9.128;2023-04-15T08:59:24;3.37;;;0.77;;
10311;SDS011;5201;48.776;9.128;2023-04-15T09:01:49;4.10;;;0.80;;
10311;SDS011;5201;48.776;9.128;2023-04-15T09:04:16;1.90;;;1.00;;
10311;SDS011;5201;48.776;9.128;2023-04-15T09:06:42;1.90;;;1.00;;
10311;SDS011;5201;48.776;9.128;2023-04-15T09:09:07;2.57;;;1.00;;
10311;SDS011;5201;48.776;9.128;2023-04-15T09:11:33;1.90;;;0.77;;
10311;SDS011;5201;48.776;9.128;2023-04-15T09:13:59;2.63;;;0.80;;
10311;SDS011;5201;48.776;9.128;2023-04-15T09:16:25;3.07;;;0.90;;
10311;SDS011;5201;48.776;9.128;2023-04-15T09:18:52;1.97;;;0.70;;
10311;SDS011;5201;48.776;9.128;2023-04-15T09:21:18;4.30;;;2.43;;
10311;SDS011;5201;48.776;9.128;2023-04-15T09:24:02;2.90;;;0.80;;
10311;SDS011;5201;48.776;9.128;2023-04-15T09:26:34;1.27;;;0.80;;
10311;SDS011;5201;48.776;9.128;2023-04-15T09:29:05;3.67;;;1.13;;
10311;SDS011;5201;48.776;9.128;2023-04-15T09:31:31;3.80;;;0.87;;
10311;SDS011;5201;48.776;9.128;2023-04-15T09:33:57;1.67;;;0.80;;
10311;SDS011;5201;48.776;9.128;2023-04-15T09:36:23;3.30;;;0.93;;
10311;SDS011;5201;48.776;9.128;2023-04-15T09:38:59;2.97;;;1.07;;
10311;SDS011;5201;48.776;9.128;2023-04-15T09:41:25;2.23;;;1.00;;
10311;SDS011;5201;48.776;9.128;2023-04-15T09:43:51;2.43;;;1.20;;
10311;SDS011;5201;48.776;9.128;2023-04-15T09:46:17;1.77;;;0.90;;
10311;SDS011;5201;48.776;9.128;2023-04-15T09:48:42;3.27;;;1.10;;
10311;SDS011;5201;48.776;9.128;2023-04-15T09:51:08;2.77;;;1.00;;
10311;SDS011;5201;48.776;9.128;2023-04-15T09:53:34;2.03;;;0.80;;
10311;SDS011;5201;48.776;9.128;2023-04-15T09:56:02;2.03;;;1.20;;
10311;SDS011;5201;48.776;9.128;2023-04-15T09:58:28;1.80;;;0.73;;
10311;SDS011;5201;48.776;9.128;2023-04-15T10:00:56;1.63;;;0.90;;
10311;SDS011;5201;48.776;9.128;2023-04-15T10:03:26;2.80;;;1.10;;
10311;SDS011;5201;48.776;9.128;2023-04-15T10:05:54;6.17;;;1.13;;
10311;SDS011;5201;48.776;9.128;2023-04-15T10:08:22;3.53;;;1.13;;
10311;SDS011;5201;48.776;9.128;2023-04-15T10:10:49;3.13;;;1.17;;
10311;SDS011;5201;48.776;9.128;2023-04-15T10:13:18;1.57;;;1.17;;
10311;SDS011;5201;48.776;9.128;2023-04-15T10:15:56;1.90;;;1.07;;
10311;SDS011;5201;48.776;9.128;2023-04-15T10:18:24;3.70;;;1.57;;
10311;SDS011;5201;48.776;9.128;2023-04-15T10:20:51;4.83;;;1.80;;
10311;SDS011;5201;48.776;9.128;2023-04-15T10:23:17;2.43;;;1.40;;
10311;SDS011;5201;48.776;9.128;2023-04-15T10:25:45;3.43;;;1.27;;
10311;SDS011;5201;48.776;9.128;2023-04-15T10:28:12;5.30;;;1.43;;
10311;SDS011;5201;48.776;9.128;2023-04-15T10:30:40;5.73;;;1.50;;
10311;SDS011;5201;48.776;9.128;2023-04-15T10:33:07;5.57;;;1.40;;
10311;SDS011;5201;48.776;9.128;2023-04-15T10:35:34;5.93;;;1.60;;
10311;SDS011;5201;48.776;9.128;2023-04-15T10:38:00;2.00;;;1.40;;
10311;SDS011;5201;48.776;9.128;2023-04-15T10:40:29;3.93;;;1.40;;
10311;SDS011;5201;48.776;9.128;2023-04-15T10:43:00;5.20;;;1.60;;
10311;SDS011;5201;48.776;9.128;2023-04-15T10:45:36;4.77;;;1.20;;
10311;SDS011;5201;48.776;9.128;2023-04-15T10:48:02;1.47;;;1.10;;
10311;SDS011;5201;48.776;9.128;2023-04-15T10:50:30;4.40;;;1.30;;
10311;SDS011;5201;48.776;9.128;2023-04-15T10:52:56;3.27;;;1.40;;
10311;SDS011;5201;48.776;9.128;2023-04-15T10:55:23;1.70;;;1.37;;
10311;SDS011;5201;48.776;9.128;2023-04-15T10:57:59;2.93;;;1.20;;
10311;SDS011;5201;48.776;9.128;2023-04-15T11:00:29;3.43;;;1.57;;
10311;SDS011;5201;48.776;9.128;2023-04-15T11:02:57;2.33;;;1.60;;
10311;SDS011;5201;48.776;9.128;2023-04-15T11:08:10;6.23;;;1.40;;
10311;SDS011;5201;48.776;9.128;2023-04-15T11:13:03;3.13;;;1.30;;
10311;SDS011;5201;48.776;9.128;2023-04-15T11:18:12;4.20;;;1.50;;
10311;SDS011;5201;48.776;9.128;2023-04-15T11:20:49;3.63;;;1.27;;
10311;SDS011;5201;48.776;9.128;2023-04-15T11:23:40;4.57;;;1.30;;
10311;SDS011;5201;48.776;9.128;2023-04-15T11:26:13;1.93;;;1.40;;
10311;SDS011;5201;48.776;9.128;2023-04-15T11:28:40;3.03;;;1.47;;
10311;SDS011;5201;48.776;9.128;2023-04-15T11:31:10;2.47;;;1.20;;
10311;SDS011;5201;48.776;9.128;2023-04-15T11:33:52;3.23;;;1.50;;
10311;SDS011;5201;48.776;9.128;2023-04-15T11:36:23;2.53;;;1.20;;
10311;SDS011;5201;48.776;9.128;2023-04-15T11:38:51;3.33;;;1.20;;
10311;SDS011;5201;48.776;9.128;2023-04-15T11:41:22;3.27;;;1.50;;
10311;SDS011;5201;48.776;9.128;2023-04-15T11:43:49;1.70;;;1.30;;
10311;SDS011;5201;48.776;9.128;2023-04-15T11:46:15;2.77;;;1.47;;
10311;SDS011;5201;48.776;9.128;2023-04-15T11:48:42;3.83;;;1.33;;
10311;SDS011;5201;48.776;9.128;2023-04-15T11:51:10;1.97;;;1.50;;
10311;SDS011;5201;48.776;9.128;2023-04-15T11:56:15;1.70;;;1.50;;
10311;SDS011;5201;48.776;9.128;2023-04-15T11:58:45;6.83;;;1.87;;
10311;SDS011;5201;48.776;9.128;2023-04-15T12:01:12;5.97;;;1.83;;
10311;SDS011;5201;48.776;9.128;2023-04-15T12:03:42;5.87;;;2.07;;
10311;SDS011;5201;48.776;9.128;2023-04-15T12:06:17;3.30;;;1.97;;
10311;SDS011;5201;48.776;9.128;2023-04-15T12:14:33;1.87;;;1.30;;
10311;SDS011;5201;48.776;9.128;2023-04-15T12:17:01;3.57;;;1.90;;
10311;SDS011;5201;48.776;9.128;2023-04-15T12:21:57;1.97;;;1.30;;
10311;SDS011;5201;48.776;9.128;2023-04-15T12:24:25;3.27;;;2.13;;
10311;SDS011;5201;48.776;9.128;2023-04-15T12:26:51;3.93;;;2.20;;
10311;SDS011;5201;48.776;9.128;2023-04-15T12:29:19;2.33;;;1.40;;
10311;SDS011;5201;48.776;9.128;2023-04-15T12:31:52;3.83;;;1.70;;
10311;SDS011;5201;48.776;9.128;2023-04-15T12:34:34;3.60;;;1.60;;
10311;SDS011;5201;48.776;9.128;2023-04-15T12:37:04;5.67;;;1.87;;
10311;SDS011;5201;48.776;9.128;2023-04-15T12:39:33;2.03;;;1.13;;
10311;SDS011;5201;48.776;9.128;2023-04-15T12:42:02;2.33;;;1.50;;
10311;SDS011;5201;48.776;9.128;2023-04-15T12:44:28;2.67;;;1.50;;
10311;SDS011;5201;48.776;9.128;2023-04-15T12:46:54;2.30;;;1.50;;
10311;SDS011;5201;48.776;9.128;2023-04-15T12:49:20;2.27;;;1.33;;
10311;SDS011;5201;48.776;9.128;2023-04-15T12:51:50;2.03;;;1.73;;
10311;SDS011;5201;48.776;9.128;2023-04-15T12:54:17;8.43;;;2.00;;
10311;SDS011;5201;48.776;9.128;2023-04-15T12:56:46;3.47;;;1.53;;
10311;SDS011;5201;48.776;9.128;2023-04-15T12:59:14;2.23;;;1.63;;
10311;SDS011;5201;48.776;9.128;2023-04-15T13:01:40;5.17;;;1.80;;
10311;SDS011;5201;48.776;9.128;2023-04-15T13:04:06;5.93;;;1.80;;
10311;SDS011;5201;48.776;9.128;2023-04-15T13:06:32;3.87;;;1.60;;
10311;SDS011;5201;48.776;9.128;2023-04-15T13:08:58;3.90;;;1.67;;
10311;SDS011;5201;48.776;9.128;2023-04-15T13:11:25;3.67;;;1.27;;
10311;SDS011;5201;48.776;9.128;2023-04-15T13:13:51;1.80;;;1.43;;
10311;SDS011;5201;48.776;9.128;2023-04-15T13:16:17;3.23;;;1.50;;
10311;SDS011;5201;48.776;9.128;2023-04-15T13:18:43;5.13;;;1.20;;
10311;SDS011;5201;48.776;9.128;2023-04-15T13:21:10;3.17;;;1.17;;
10311;SDS011;5201;48.776;9.128;2023-04-15T13:23:37;3.43;;;1.00;;
10311;SDS011;5201;48.776;9.128;2023-04-15T13:26:02;2.77;;;1.20;;
10311;SDS011;5201;48.776;9.128;2023-04-15T13:28:28;2.33;;;1.20;;
10311;SDS011;5201;48.776;9.128;2023-04-15T13:30:53;2.30;;;0.97;;
10311;SDS011;5201;48.776;9.128;2023-04-15T13:33:19;2.23;;;1.20;;
10311;SDS011;5201;48.776;9.128;2023-04-15T13:35:45;1.93;;;1.43;;
10311;SDS011;5201;48.776;9.128;2023-04-15T13:38:10;5.47;;;1.23;;
10311;SDS011;5201;48.776;9.128;2023-04-15T13:40:36;3.53;;;2.17;;
10311;SDS011;5201;48.776;9.128;2023-04-15T13:43:01;2.93;;;1.00;;
10311;SDS011;5201;48.776;9.128;2023-04-15T13:45:28;2.53;;;0.97;;
10311;SDS011;5201;48.776;9.128;2023-04-15T13:47:54;3.07;;;1.00;;
10311;SDS011;5201;48.776;9.128;2023-04-15T13:50:20;1.80;;;0.80;;
10311;SDS011;5201;48.776;9.128;2023-04-15T13:52:46;1.47;;;0.73;;
10311;SDS011;5201;48.776;9.128;2023-04-15T13:55:12;1.40;;;0.80;;
10311;SDS011;5201;48.776;9.128;2023-04-15T13:57:37;0.90;;;0.90;;
10311;SDS011;5201;48.776;9.128;2023-04-15T14:00:03;2.37;;;0.77;;
10311;SDS011;5201;48.776;9.128;2023-04-15T14:02:30;1.90;;;0.80;;
10311;SDS011;5201;48.776;9.128;2023-04-15T14:04:55;5.67;;;1.00;;
10311;SDS011;5201;48.776;9.128;2023-04-15T14:07:21;2.00;;;0.70;;
10311;SDS011;5201;48.776;9.128;2023-04-15T14:09:47;1.27;;;0.77;;
10311;SDS011;5201;48.776;9.128;2023-04-15T14:12:13;3.03;;;0.80;;
10311;SDS011;5201;48.776;9.128;2023-04-15T14:14:38;5.40;;;0.80;;
10311;SDS011;5201;48.776;9.128;2023-04-15T14:17:04;1.47;;;0.40;;
10311;SDS011;5201;48.776;9.128;2023-04-15T14:19:31;1.63;;;0.70;;
10311;SDS011;5201;48.776;9.128;2023-04-15T14:21:56;0.60;;;0.60;;
10311;SDS011;5201;48.776;9.128;2023-04-15T14:24:23;0.93;;;0.70;;
10311;SDS011;5201;48.776;9.128;2023-04-15T14:26:48;0.63;;;0.60;;
10311;SDS011;5201;48.776;9.128;2023-04-15T14:29:14;1.73;;;0.70;;
10311;SDS011;5201;48.776;9.128;2023-04-15T14:31:40;3.07;;;0.90;;
10311;SDS011;5201;48.776;9.128;2023-04-15T14:34:08;0.70;;;0.70;;
10311;SDS011;5201;48.776;9.128;2023-04-15T14:36:34;2.77;;;1.37;;
10311;SDS011;5201;48.776;9.128;2023-04-15T14:38:59;1.93;;;0.70;;
10311;SDS011;5201;48.776;9.128;2023-04-15T14:41:25;1.23;;;0.70;;
10311;SDS011;5201;48.776;9.128;2023-04-15T14:43:51;0.80;;;0.80;;
10311;SDS011;5201;48.776;9.128;2023-04-15T14:46:16;0.80;;;0.80;;
10311;SDS011;5201;48.776;9.128;2023-04-15T14:48:42;0.70;;;0.70;;
10311;SDS011;5201;48.776;9.128;2023-04-15T14:51:07;0.87;;;0.87;;
10311;SDS011;5201;48.776;9.128;2023-04-15T14:53:33;1.13;;;1.07;;
10311;SDS011;5201;48.776;9.128;2023-04-15T14:55:59;3.33;;;1.13;;
10311;SDS011;5201;48.776;9.128;2023-04-15T14:58:24;1.57;;;1.20;;
10311;SDS011;5201;48.776;9.128;2023-04-15T15:00:50;2.47;;;1.07;;
10311;SDS011;5201;48.776;9.128;2023-04-15T15:03:16;1.80;;;0.80;;
10311;SDS011;5201;48.776;9.128;2023-04-15T15:05:42;3.33;;;1.10;;
10311;SDS011;5201;48.776;9.128;2023-04-15T15:08:10;1.43;;;0.80;;
10311;SDS011;5201;48.776;9.128;2023-04-15T15:10:35;1.47;;;0.87;;
10311;SDS011;5201;48.776;9.128;2023-04-15T15:13:02;1.30;;;1.00;;
10311;SDS011;5201;48.776;9.128;2023-04-15T15:15:29;0.77;;;0.77;;
10311;SDS011;5201;48.776;9.128;2023-04-15T15:17:55;1.07;;;0.90;;